Time;durP1;ratioP1;P1;durP2;ratioP2;P2;SDS_P1;SDS_P2;PMS_P1;PMS_P2;Temp;Humidity;BMP_temperature;BMP_pressure;BME280_temperature;BME280_humidity;BME280_pressure;Samples;Min_cycle;Max_cycle;Signal;HPM_P1;HPM_P2
2021/07/04 00:00:37;;;;;;;10.90;9.90;;;17.90;99.90;;;;;;4955725;28;20215;-43
2021/07/04 00:03:07;;;;;;;10.35;9.30;;;17.90;99.90;;;;;;4955421;28;20645;-43
2021/07/04 00:05:38;;;;;;;10.63;9.52;;;17.90;99.90;;;;;;4955517;28;20742;-41
2021/07/04 00:08:09;;;;;;;12.48;9.80;;;17.90;99.90;;;;;;4954826;28;20307;-41
2021/07/04 00:10:39;;;;;;;14.32;12.93;;;17.90;99.90;;;;;;4955419;28;20294;-41
2021/07/04 00:13:07;;;;;;;11.23;10.13;;;18.00;99.90;;;;;;4955355;28;20306;-41
2021/07/04 00:15:40;;;;;;;11.93;10.82;;;18.00;99.90;;;;;;4955341;28;20211;-42
2021/07/04 00:18:12;;;;;;;12.40;11.15;;;18.00;99.90;;;;;;4955450;28;20234;-44
2021/07/04 00:20:41;;;;;;;11.43;10.35;;;18.00;99.90;;;;;;4955392;28;20578;-42
2021/07/04 00:23:12;;;;;;;11.68;10.43;;;18.00;99.90;;;;;;4955328;28;20216;-42
2021/07/04 00:25:40;;;;;;;10.35;9.35;;;18.00;99.90;;;;;;4955085;28;20211;-41
2021/07/04 00:28:08;;;;;;;9.98;8.88;;;18.00;99.90;;;;;;4954962;28;20262;-41
2021/07/04 00:30:36;;;;;;;12.60;11.40;;;18.00;99.90;;;;;;4955164;28;20664;-41
2021/07/04 00:33:05;;;;;;;10.63;9.70;;;18.00;99.90;;;;;;4955177;28;20294;-45
2021/07/04 00:35:35;;;;;;;13.98;10.23;;;18.00;99.90;;;;;;4955204;28;20217;-43
2021/07/04 00:38:05;;;;;;;9.98;9.05;;;18.10;99.90;;;;;;4955093;28;20213;-42
2021/07/04 00:40:33;;;;;;;12.15;11.07;;;18.10;99.90;;;;;;4954897;28;20734;-44
2021/07/04 00:43:01;;;;;;;10.57;9.55;;;18.10;99.90;;;;;;4955189;28;20290;-42
2021/07/04 00:45:29;;;;;;;12.00;10.90;;;18.10;99.90;;;;;;4955281;28;20298;-41
2021/07/04 00:47:57;;;;;;;12.30;11.18;;;18.10;99.90;;;;;;4954551;28;20270;-45
2021/07/04 00:50:28;;;;;;;11.10;10.10;;;18.00;99.90;;;;;;4954868;28;20211;-42
2021/07/04 00:52:59;;;;;;;13.05;11.75;;;18.10;99.90;;;;;;4954697;28;20215;-42
2021/07/04 00:55:28;;;;;;;11.15;9.85;;;18.00;99.90;;;;;;4955019;28;20219;-43
2021/07/04 00:57:56;;;;;;;11.10;10.10;;;18.00;99.90;;;;;;4954840;28;20678;-42
2021/07/04 01:00:27;;;;;;;12.25;11.10;;;18.00;99.90;;;;;;4954696;28;20706;-42
2021/07/04 01:02:56;;;;;;;11.20;10.20;;;18.00;99.90;;;;;;4954751;28;20342;-42
2021/07/04 01:05:25;;;;;;;10.25;9.30;;;18.00;99.90;;;;;;4954732;28;20307;-42
2021/07/04 01:07:54;;;;;;;11.02;10.02;;;18.00;99.90;;;;;;4954473;28;20298;-42
2021/07/04 01:10:26;;;;;;;11.60;10.50;;;18.00;99.90;;;;;;4954827;28;20302;-44
2021/07/04 01:12:56;;;;;;;11.45;10.32;;;18.00;99.90;;;;;;4954692;28;20222;-42
2021/07/04 01:15:26;;;;;;;11.23;10.05;;;18.00;99.90;;;;;;4954453;28;20211;-41
2021/07/04 01:17:56;;;;;;;12.52;10.95;;;18.00;99.90;;;;;;4954555;28;20306;-43
2021/07/04 01:20:26;;;;;;;13.05;11.40;;;18.00;99.90;;;;;;4954304;28;20289;-42
2021/07/04 01:22:59;;;;;;;12.70;11.50;;;17.90;99.90;;;;;;4954582;28;20211;-45
2021/07/04 01:25:28;;;;;;;12.57;11.30;;;17.90;99.90;;;;;;4954487;28;20258;-45
2021/07/04 01:27:57;;;;;;;12.00;10.68;;;17.90;99.90;;;;;;4954297;28;20294;-43
2021/07/04 01:30:26;;;;;;;11.52;10.43;;;17.90;99.90;;;;;;4954340;28;20298;-43
2021/07/04 01:32:55;;;;;;;11.80;10.70;;;17.90;99.90;;;;;;4954237;28;20212;-45
2021/07/04 01:35:23;;;;;;;12.13;10.98;;;18.00;99.90;;;;;;4954394;28;20302;-43
2021/07/04 01:37:51;;;;;;;12.25;11.02;;;18.00;99.90;;;;;;4954255;28;20302;-44
2021/07/04 01:40:21;;;;;;;11.52;10.43;;;18.00;99.90;;;;;;4954251;28;20306;-43
2021/07/04 01:42:50;;;;;;;12.70;11.43;;;18.00;99.90;;;;;;4954043;28;20791;-43
2021/07/04 01:45:22;;;;;;;12.20;10.50;;;18.00;99.90;;;;;;4954088;28;20238;-44
2021/07/04 01:47:51;;;;;;;11.85;10.75;;;18.00;99.90;;;;;;4954230;28;20270;-44
2021/07/04 01:50:21;;;;;;;11.50;10.40;;;18.00;99.90;;;;;;4953861;28;20238;-44
2021/07/04 01:52:49;;;;;;;11.38;10.48;;;18.00;99.90;;;;;;4954184;28;20229;-46
2021/07/04 01:55:17;;;;;;;12.70;11.40;;;18.00;99.90;;;;;;4953873;28;20218;-45
2021/07/04 01:57:47;;;;;;;12.00;10.82;;;18.00;99.90;;;;;;4954874;28;20309;-46
2021/07/04 02:00:18;;;;;;;11.70;10.68;;;18.00;99.90;;;;;;4954167;28;20310;-45
2021/07/04 02:02:47;;;;;;;12.07;10.88;;;18.00;99.90;;;;;;4954044;28;20629;-45
2021/07/04 02:05:15;;;;;;;11.93;10.93;;;18.00;99.90;;;;;;4953862;28;20243;-43
2021/07/04 02:07:43;;;;;;;12.68;11.48;;;18.00;99.90;;;;;;4954117;28;20207;-44
2021/07/04 02:10:16;;;;;;;12.20;11.10;;;18.00;99.90;;;;;;4953713;28;20238;-42
2021/07/04 02:12:44;;;;;;;12.88;11.57;;;18.10;99.90;;;;;;4953716;28;20738;-42
2021/07/04 02:15:16;;;;;;;11.68;10.68;;;18.00;99.90;;;;;;4953958;28;20207;-43
2021/07/04 02:17:44;;;;;;;13.43;11.57;;;17.90;99.90;;;;;;4953808;28;20273;-42
2021/07/04 02:20:30;;;;;;;11.50;10.50;;;17.90;99.90;;;;;;4954086;28;20208;-43
2021/07/04 02:22:58;;;;;;;11.95;10.82;;;17.90;99.90;;;;;;4953992;28;20215;-46
2021/07/04 02:25:26;;;;;;;12.48;11.27;;;17.90;99.90;;;;;;4953637;28;20230;-42
2021/07/04 02:27:55;;;;;;;11.70;10.57;;;17.90;99.90;;;;;;4953700;28;20302;-42
2021/07/04 02:30:26;;;;;;;11.98;10.88;;;17.80;99.90;;;;;;4953774;28;20262;-43
2021/07/04 02:32:54;;;;;;;12.05;10.98;;;17.80;99.90;;;;;;4956998;28;20298;-45
2021/07/04 02:35:22;;;;;;;12.50;11.27;;;17.80;99.90;;;;;;4957347;28;20208;-44
2021/07/04 02:37:50;;;;;;;12.98;11.68;;;17.80;99.90;;;;;;4957553;28;20294;-43
2021/07/04 02:40:18;;;;;;;12.60;11.40;;;17.70;99.90;;;;;;4957503;28;20258;-43
2021/07/04 02:42:46;;;;;;;11.95;10.95;;;17.70;99.90;;;;;;4957308;28;20588;-41
2021/07/04 02:45:14;;;;;;;11.63;10.52;;;17.70;99.90;;;;;;4957273;28;20212;-44
2021/07/04 02:47:44;;;;;;;12.57;11.38;;;17.70;99.90;;;;;;4956993;28;20730;-42
2021/07/04 02:50:13;;;;;;;13.55;12.30;;;17.70;99.90;;;;;;4957047;28;20322;-42
2021/07/04 02:52:41;;;;;;;14.15;12.68;;;17.70;99.90;;;;;;4957257;28;20630;-42
2021/07/04 02:55:11;;;;;;;13.63;11.50;;;17.70;99.90;;;;;;4956991;28;20207;-43
2021/07/04 02:57:38;;;;;;;11.75;10.65;;;17.70;99.90;;;;;;4956964;28;20690;-46
2021/07/04 03:00:09;;;;;;;11.85;10.85;;;17.70;99.90;;;;;;4956904;28;20275;-45
2021/07/04 03:02:37;;;;;;;11.95;10.85;;;17.70;99.90;;;;;;4956811;28;20253;-43
2021/07/04 03:05:10;;;;;;;13.40;11.43;;;17.70;99.90;;;;;;4957201;28;20207;-46
2021/07/04 03:07:38;;;;;;;11.82;10.73;;;17.70;99.90;;;;;;4956938;28;20208;-42
2021/07/04 03:10:08;;;;;;;13.80;10.77;;;17.70;99.90;;;;;;4956881;28;20711;-45
2021/07/04 03:12:36;;;;;;;12.68;11.38;;;17.80;99.90;;;;;;4956783;28;20212;-42
2021/07/04 03:15:06;;;;;;;11.73;10.63;;;17.80;99.90;;;;;;4956781;28;20220;-47
2021/07/04 03:17:34;;;;;;;12.32;11.13;;;17.80;99.90;;;;;;4956603;28;20247;-44
2021/07/04 03:20:02;;;;;;;12.05;10.95;;;17.80;99.90;;;;;;4956700;28;20295;-45
2021/07/04 03:22:31;;;;;;;12.60;11.30;;;17.80;99.90;;;;;;4956635;28;20298;-42
2021/07/04 03:24:59;;;;;;;12.80;11.60;;;17.70;99.90;;;;;;4956529;28;20215;-43
2021/07/04 03:27:27;;;;;;;12.52;11.20;;;17.70;99.90;;;;;;4956523;28;20766;-42
2021/07/04 03:29:55;;;;;;;11.98;10.85;;;17.80;99.90;;;;;;4956463;28;20374;-43
2021/07/04 03:32:23;;;;;;;12.00;11.00;;;17.80;99.90;;;;;;4956569;28;20222;-46
2021/07/04 03:34:51;;;;;;;12.63;11.23;;;17.70;99.90;;;;;;4956299;28;20208;-43
2021/07/04 03:37:19;;;;;;;12.00;10.85;;;17.80;99.90;;;;;;4956058;28;20266;-42
2021/07/04 03:39:48;;;;;;;11.13;10.10;;;17.80;99.90;;;;;;4956097;28;20239;-44
2021/07/04 03:42:16;;;;;;;11.95;10.85;;;17.80;99.90;;;;;;4955740;28;20246;-42
2021/07/04 03:44:44;;;;;;;11.38;10.02;;;17.80;99.90;;;;;;4955493;28;20730;-42
2021/07/04 03:47:12;;;;;;;12.00;10.80;;;17.80;99.90;;;;;;4956145;28;20282;-46
2021/07/04 03:49:40;;;;;;;11.93;10.88;;;17.80;99.90;;;;;;4955983;28;20290;-46
2021/07/04 03:52:08;;;;;;;11.70;10.50;;;17.80;99.90;;;;;;4955938;28;20298;-45
2021/07/04 03:54:36;;;;;;;12.57;11.38;;;17.70;99.90;;;;;;4955904;28;20306;-43
2021/07/04 03:59:48;;;;;;;13.35;11.95;;;17.80;99.90;;;;;;4956012;28;20262;-43
2021/07/04 04:02:16;;;;;;;11.77;10.63;;;17.80;99.90;;;;;;4955538;28;20211;-44
2021/07/04 04:04:45;;;;;;;12.25;11.00;;;17.80;99.90;;;;;;4955391;28;20571;-44
2021/07/04 04:07:13;;;;;;;10.07;9.18;;;17.80;99.90;;;;;;4955453;28;20247;-43
2021/07/04 04:09:42;;;;;;;11.02;10.05;;;17.80;99.90;;;;;;4955712;28;20398;-43
2021/07/04 04:12:11;;;;;;;11.75;10.65;;;17.90;99.90;;;;;;4955592;28;20215;-43
2021/07/04 04:14:39;;;;;;;13.13;11.38;;;17.90;99.90;;;;;;4955647;28;20314;-43
2021/07/04 04:17:07;;;;;;;13.13;11.23;;;17.90;99.90;;;;;;4955479;28;20302;-45
2021/07/04 04:19:36;;;;;;;12.25;10.20;;;18.00;99.90;;;;;;4955222;28;21004;-44
2021/07/04 04:22:04;;;;;;;10.35;9.35;;;18.00;99.90;;;;;;4955317;28;20212;-46
2021/07/04 04:24:32;;;;;;;12.07;10.23;;;18.00;99.90;;;;;;4955314;28;20218;-46
2021/07/04 04:27:00;;;;;;;11.40;10.27;;;18.10;99.90;;;;;;4955273;28;20238;-47
2021/07/04 04:29:29;;;;;;;11.13;10.10;;;18.10;99.90;;;;;;4955123;28;20623;-42
2021/07/04 04:31:57;;;;;;;11.20;9.93;;;18.10;99.90;;;;;;4955107;28;20211;-44
2021/07/04 04:34:25;;;;;;;11.15;9.02;;;18.10;99.90;;;;;;4954972;28;20678;-44
2021/07/04 04:36:53;;;;;;;10.20;9.30;;;18.10;99.90;;;;;;4955195;28;20235;-43
2021/07/04 04:39:21;;;;;;;10.75;9.75;;;18.10;99.90;;;;;;4955044;28;20302;-42
2021/07/04 04:41:50;;;;;;;10.60;9.68;;;18.10;99.90;;;;;;4954950;28;20207;-43
2021/07/04 04:44:35;;;;;;;10.85;9.85;;;18.20;99.90;;;;;;4954915;28;20269;-42
2021/07/04 04:47:04;;;;;;;10.60;9.60;;;18.20;99.90;;;;;;4954706;28;20681;-45
2021/07/04 04:49:32;;;;;;;10.20;9.20;;;18.20;99.90;;;;;;4954506;28;20366;-43
2021/07/04 04:52:00;;;;;;;10.55;9.55;;;18.20;99.90;;;;;;4954587;28;20315;-43
2021/07/04 04:54:28;;;;;;;11.68;10.40;;;18.30;99.90;;;;;;4954343;28;20525;-44
2021/07/04 04:56:55;;;;;;;9.93;9.00;;;18.30;99.90;;;;;;4954545;28;20207;-45
2021/07/04 04:59:23;;;;;;;11.00;8.75;;;18.30;99.90;;;;;;4954971;28;20311;-44
2021/07/04 05:01:53;;;;;;;11.00;9.32;;;18.30;99.90;;;;;;4954279;28;20306;-43
2021/07/04 05:04:21;;;;;;;11.68;9.30;;;18.30;99.90;;;;;;4954372;28;20216;-46
2021/07/04 05:06:49;;;;;;;10.75;9.65;;;18.30;99.90;;;;;;4954489;28;20591;-42
2021/07/04 05:09:16;;;;;;;10.93;9.82;;;18.30;99.90;;;;;;4954215;28;20266;-43
2021/07/04 05:11:45;;;;;;;10.32;9.30;;;18.30;99.90;;;;;;4954285;28;20318;-42
2021/07/04 05:14:13;;;;;;;12.65;8.57;;;18.30;99.90;;;;;;4954548;28;20306;-42
2021/07/04 05:16:41;;;;;;;9.05;8.32;;;18.30;99.90;;;;;;4954321;28;20280;-42
2021/07/04 05:19:11;;;;;;;9.65;8.65;;;18.30;99.90;;;;;;4954431;28;20222;-44
2021/07/04 05:21:39;;;;;;;9.40;8.48;;;18.30;99.90;;;;;;4954425;28;20647;-44
2021/07/04 05:24:08;;;;;;;10.02;9.10;;;18.30;99.90;;;;;;4954094;28;20219;-41
2021/07/04 05:26:37;;;;;;;12.27;8.75;;;18.30;99.90;;;;;;4954434;28;20215;-41
2021/07/04 05:29:05;;;;;;;9.23;8.43;;;18.30;99.90;;;;;;4954195;28;20611;-42
2021/07/04 05:31:33;;;;;;;10.65;9.65;;;18.30;99.90;;;;;;4953847;28;20269;-42
2021/07/04 05:34:01;;;;;;;9.70;8.85;;;18.30;99.90;;;;;;4954091;28;20294;-42
2021/07/04 05:36:31;;;;;;;10.65;9.23;;;18.30;99.90;;;;;;4953856;28;20306;-41
2021/07/04 05:38:59;;;;;;;9.15;8.35;;;18.30;99.90;;;;;;4953841;28;20306;-41
2021/07/04 05:41:27;;;;;;;10.98;9.82;;;18.20;99.90;;;;;;4954173;28;20578;-47
2021/07/04 05:43:55;;;;;;;8.43;7.68;;;18.20;99.90;;;;;;4953825;28;20215;-41
2021/07/04 05:46:23;;;;;;;9.07;8.27;;;18.10;99.90;;;;;;4953638;28;20235;-45
2021/07/04 05:48:51;;;;;;;7.65;6.97;;;18.00;99.90;;;;;;4953512;28;20242;-42
2021/07/04 05:51:19;;;;;;;9.13;7.80;;;18.00;99.90;;;;;;4953831;28;20322;-41
2021/07/04 05:53:48;;;;;;;7.90;7.20;;;17.90;99.90;;;;;;4953930;28;20219;-42
2021/07/04 05:56:16;;;;;;;8.45;7.40;;;17.90;99.90;;;;;;4953689;28;20207;-43
2021/07/04 05:58:44;;;;;;;8.50;7.53;;;17.90;99.90;;;;;;4953558;28;20294;-42
2021/07/04 06:01:12;;;;;;;8.45;7.75;;;18.00;99.90;;;;;;4953439;28;20219;-44
2021/07/04 06:03:40;;;;;;;10.43;7.68;;;18.10;99.90;;;;;;4953560;28;20269;-44
2021/07/04 06:06:08;;;;;;;8.95;8.15;;;18.10;99.90;;;;;;4954681;28;20742;-43
2021/07/04 06:08:36;;;;;;;8.77;7.97;;;18.20;99.90;;;;;;4958024;28;20305;-45
2021/07/04 06:11:06;;;;;;;9.25;8.55;;;18.30;99.90;;;;;;4957768;28;20318;-46
2021/07/04 06:13:34;;;;;;;8.93;8.13;;;18.30;99.90;;;;;;4957706;28;20739;-47
2021/07/04 06:16:02;;;;;;;8.68;7.95;;;18.40;99.90;;;;;;4957594;28;20222;-48
2021/07/04 06:18:30;;;;;;;8.57;7.80;;;18.50;99.90;;;;;;4957891;28;20758;-49
2021/07/04 06:20:58;;;;;;;19.70;16.00;;;18.50;99.90;;;;;;4957504;28;20219;-47
2021/07/04 06:23:26;;;;;;;12.18;10.88;;;18.50;99.90;;;;;;4957418;28;20729;-45
2021/07/04 06:25:54;;;;;;;10.63;9.52;;;18.50;99.90;;;;;;4957394;28;20306;-43
2021/07/04 06:28:23;;;;;;;10.38;8.93;;;18.50;99.90;;;;;;4957488;28;20235;-43
2021/07/04 06:30:51;;;;;;;8.45;7.65;;;18.50;99.90;;;;;;4957231;28;20309;-48
2021/07/04 06:33:19;;;;;;;9.93;8.93;;;18.60;99.90;;;;;;4957711;28;20627;-45
2021/07/04 06:35:47;;;;;;;9.48;8.57;;;18.60;99.90;;;;;;4957401;28;20213;-47
2021/07/04 06:38:15;;;;;;;8.52;7.80;;;18.60;99.90;;;;;;4957450;28;20235;-46
2021/07/04 06:40:43;;;;;;;8.38;7.57;;;18.60;99.90;;;;;;4957546;28;20299;-47
2021/07/04 06:43:11;;;;;;;7.18;6.55;;;18.70;99.90;;;;;;4957243;28;20242;-44
2021/07/04 06:45:41;;;;;;;8.20;7.43;;;18.60;99.90;;;;;;4957396;28;20559;-49
2021/07/04 06:48:09;;;;;;;7.60;6.90;;;18.60;99.90;;;;;;4956893;28;20286;-46
2021/07/04 06:50:40;;;;;;;6.38;5.88;;;18.60;99.90;;;;;;4957235;28;20224;-46
2021/07/04 06:53:08;;;;;;;7.45;6.80;;;18.50;99.90;;;;;;4957666;28;20236;-45
2021/07/04 06:55:36;;;;;;;7.20;6.50;;;18.50;99.90;;;;;;4956687;28;20722;-48
2021/07/04 06:58:04;;;;;;;6.25;5.25;;;18.50;99.90;;;;;;4956640;28;20699;-48
2021/07/04 07:00:32;;;;;;;6.78;5.95;;;18.50;99.90;;;;;;4956741;28;20223;-46
2021/07/04 07:03:01;;;;;;;5.80;5.30;;;18.50;99.90;;;;;;4956965;28;20212;-47
2021/07/04 07:05:29;;;;;;;6.20;5.60;;;18.50;99.90;;;;;;4956696;28;20306;-46
2021/07/04 07:07:57;;;;;;;7.15;6.45;;;18.40;99.90;;;;;;4956617;28;20302;-44
2021/07/04 07:10:25;;;;;;;8.57;5.85;;;18.40;99.90;;;;;;4956497;28;20311;-43
2021/07/04 07:12:54;;;;;;;5.95;5.45;;;18.30;99.90;;;;;;4956666;28;20227;-45
2021/07/04 07:15:22;;;;;;;6.93;6.32;;;18.40;99.90;;;;;;4956601;28;20761;-44
2021/07/04 07:17:50;;;;;;;6.65;6.05;;;18.50;99.90;;;;;;4956299;28;20302;-44
2021/07/04 07:20:19;;;;;;;6.80;6.20;;;18.60;99.90;;;;;;4956581;28;20294;-46
2021/07/04 07:22:47;;;;;;;6.22;5.63;;;18.70;99.90;;;;;;4956311;28;20293;-45
2021/07/04 07:25:15;;;;;;;6.10;5.57;;;18.90;99.90;;;;;;4956216;28;20214;-44
2021/07/04 07:27:43;;;;;;;6.10;5.60;;;19.00;99.90;;;;;;4956340;28;20253;-42
2021/07/04 07:30:13;;;;;;;6.75;5.63;;;19.00;99.90;;;;;;4956305;28;20319;-44
2021/07/04 07:32:41;;;;;;;5.63;5.22;;;19.00;99.90;;;;;;4955936;28;20694;-44
2021/07/04 07:35:11;;;;;;;6.13;5.63;;;19.10;99.90;;;;;;4956323;28;20216;-45
2021/07/04 07:37:40;;;;;;;5.63;5.15;;;19.10;99.90;;;;;;4955839;28;20747;-43
2021/07/04 07:40:09;;;;;;;6.35;5.85;;;19.10;99.90;;;;;;4956091;28;20302;-46
2021/07/04 07:42:37;;;;;;;6.28;5.35;;;19.30;99.90;;;;;;4956138;28;20222;-45
2021/07/04 07:45:07;;;;;;;5.43;5.03;;;19.40;99.90;;;;;;4955974;28;20207;-42
2021/07/04 07:47:36;;;;;;;5.65;5.20;;;19.50;99.90;;;;;;4955539;28;20727;-43
2021/07/04 07:50:06;;;;;;;6.00;5.50;;;19.60;99.90;;;;;;4955616;28;20298;-44
2021/07/04 07:52:34;;;;;;;5.55;4.68;;;19.70;99.90;;;;;;4955718;28;20243;-49
2021/07/04 07:55:05;;;;;;;5.65;5.18;;;19.70;99.90;;;;;;4955712;28;20251;-45
2021/07/04 07:57:33;;;;;;;5.75;5.25;;;19.70;99.90;;;;;;4954980;28;20211;-48
2021/07/04 08:00:01;;;;;;;6.63;6.03;;;19.90;99.90;;;;;;4955273;28;20306;-43
2021/07/04 08:02:29;;;;;;;7.45;6.80;;;20.10;99.90;;;;;;4955163;28;20227;-44
2021/07/04 08:04:58;;;;;;;7.95;7.25;;;20.30;99.90;;;;;;4955239;28;20664;-48
2021/07/04 08:07:26;;;;;;;4.55;4.00;;;20.60;99.90;;;;;;4954991;28;20218;-46
2021/07/04 08:09:54;;;;;;;4.80;4.35;;;20.80;99.90;;;;;;4955027;28;20294;-46
2021/07/04 08:12:23;;;;;;;4.32;3.92;;;21.10;99.90;;;;;;4954762;28;20326;-45
2021/07/04 08:14:51;;;;;;;3.65;3.35;;;21.30;99.90;;;;;;4955468;28;20631;-47
2021/07/04 08:17:20;;;;;;;3.60;3.30;;;21.50;99.90;;;;;;4955676;28;20302;-48
2021/07/04 08:19:48;;;;;;;3.20;2.90;;;21.70;99.90;;;;;;4955240;28;20262;-46
2021/07/04 08:22:16;;;;;;;3.45;3.10;;;21.90;99.90;;;;;;4955415;28;20207;-45
2021/07/04 08:24:44;;;;;;;3.45;2.80;;;22.10;99.90;;;;;;4954935;28;20306;-44
2021/07/04 08:27:12;;;;;;;2.72;2.53;;;22.10;99.90;;;;;;4954773;28;20220;-45
2021/07/04 08:29:41;;;;;;;4.80;3.08;;;22.20;99.90;;;;;;4954567;28;20247;-48
2021/07/04 08:32:10;;;;;;;3.42;3.13;;;22.20;99.90;;;;;;4954726;28;20263;-47
2021/07/04 08:34:38;;;;;;;2.50;2.30;;;22.20;99.90;;;;;;4954537;28;20227;-48
2021/07/04 08:37:06;;;;;;;3.22;2.75;;;22.20;99.90;;;;;;4954695;28;20302;-47
2021/07/04 08:39:34;;;;;;;3.13;2.83;;;22.30;99.90;;;;;;4954590;28;20677;-44
2021/07/04 08:42:02;;;;;;;3.63;2.30;;;22.50;99.90;;;;;;4954644;28;20211;-46
2021/07/04 08:44:30;;;;;;;2.80;2.47;;;22.70;99.90;;;;;;4954608;28;20218;-43
2021/07/04 08:47:00;;;;;;;2.63;2.42;;;22.80;99.90;;;;;;4954613;28;20334;-47
2021/07/04 08:49:28;;;;;;;2.58;2.38;;;22.90;99.90;;;;;;4954725;28;20298;-45
2021/07/04 08:51:56;;;;;;;2.70;2.35;;;22.90;99.90;;;;;;4954313;28;20669;-45
2021/07/04 08:54:25;;;;;;;4.68;3.22;;;23.00;99.90;;;;;;4954375;28;20222;-48
2021/07/04 08:56:53;;;;;;;3.33;2.20;;;23.00;99.90;;;;;;4954468;28;20215;-44
2021/07/04 08:59:21;;;;;;;2.50;2.30;;;23.00;99.90;;;;;;4954559;28;20686;-46
2021/07/04 09:01:50;;;;;;;2.72;2.53;;;23.00;99.90;;;;;;4954361;28;20207;-44
2021/07/04 09:04:20;;;;;;;2.20;1.90;;;23.10;99.90;;;;;;4954016;28;20230;-48
2021/07/04 09:06:50;;;;;;;2.38;2.17;;;23.20;99.90;;;;;;4954268;28;20211;-46
2021/07/04 09:09:20;;;;;;;3.53;3.22;;;23.30;99.90;;;;;;4953998;28;20579;-45
2021/07/04 09:11:56;;;;;;;2.45;2.25;;;23.20;99.90;;;;;;4954075;28;20644;-45
2021/07/04 09:14:33;;;;;;;1.90;1.70;;;23.10;99.90;;;;;;4953798;28;20214;-42
2021/07/04 09:17:18;;;;;;;2.55;2.35;;;23.20;99.90;;;;;;4953786;28;20246;-45
2021/07/04 09:19:56;;;;;;;2.50;2.30;;;23.20;99.90;;;;;;4953569;28;20307;-45
2021/07/04 09:22:28;;;;;;;3.20;2.10;;;23.20;99.90;;;;;;4954318;28;20299;-45
2021/07/04 09:25:08;;;;;;;2.33;2.13;;;23.00;99.90;;;;;;4953224;28;20215;-44
2021/07/04 09:27:36;;;;;;;3.63;3.17;;;22.80;99.90;;;;;;4953789;28;20242;-43
2021/07/04 09:30:06;;;;;;;2.20;2.00;;;22.50;99.90;;;;;;4953966;28;20208;-45
2021/07/04 09:32:47;;;;;;;2.40;2.20;;;22.50;99.90;;;;;;4953918;28;20403;-44
2021/07/04 09:35:19;;;;;;;3.97;3.63;;;22.50;99.90;;;;;;4953849;28;20215;-48
2021/07/04 09:37:51;;;;;;;2.95;2.65;;;22.40;99.90;;;;;;4953881;28;20247;-44
2021/07/04 09:40:22;;;;;;;3.50;2.95;;;22.30;99.90;;;;;;4953316;28;20302;-43
2021/07/04 09:43:14;;;;;;;3.13;2.53;;;22.30;99.90;;;;;;4953517;28;20208;-45
2021/07/04 09:45:49;;;;;;;2.30;2.10;;;22.50;99.90;;;;;;4953331;28;20537;-44
2021/07/04 09:48:19;;;;;;;2.10;1.90;;;22.60;99.90;;;;;;4953199;28;20242;-43
2021/07/04 09:50:51;;;;;;;3.88;2.53;;;22.70;99.90;;;;;;4953510;28;20282;-48
2021/07/04 09:53:21;;;;;;;6.28;3.92;;;22.60;99.90;;;;;;4953216;28;20606;-44
2021/07/04 09:55:51;;;;;;;2.88;2.67;;;22.50;99.90;;;;;;4953509;28;20584;-45
2021/07/04 09:58:20;;;;;;;2.42;2.22;;;22.40;99.90;;;;;;4953371;28;20250;-44
2021/07/04 10:00:48;;;;;;;3.25;2.95;;;22.50;99.90;;;;;;4953268;28;20217;-48
2021/07/04 10:03:18;;;;;;;2.42;2.22;;;22.70;99.90;;;;;;4953466;28;20302;-43
2021/07/04 10:06:03;;;;;;;3.92;3.63;;;22.90;99.90;;;;;;4953391;28;20207;-43
2021/07/04 10:08:33;;;;;;;2.95;2.33;;;23.10;99.90;;;;;;4953598;28;20257;-46
2021/07/04 10:11:04;;;;;;;2.53;2.05;;;23.40;99.90;;;;;;4953585;28;20690;-45
2021/07/04 10:13:33;;;;;;;2.45;2.25;;;23.70;99.90;;;;;;4953434;28;20237;-43
2021/07/04 10:16:01;;;;;;;2.97;2.25;;;24.00;99.90;;;;;;4953898;28;20219;-45
2021/07/04 10:18:29;;;;;;;3.35;2.60;;;24.20;99.90;;;;;;4953309;28;20231;-44
2021/07/04 10:20:57;;;;;;;7.25;3.17;;;24.30;99.90;;;;;;4953573;28;20290;-47
2021/07/04 10:23:28;;;;;;;3.13;2.92;;;24.50;99.90;;;;;;4953325;28;20298;-46
2021/07/04 10:25:58;;;;;;;3.20;2.97;;;24.60;99.90;;;;;;4953208;28;20306;-43
2021/07/04 10:28:31;;;;;;;4.05;2.78;;;24.70;99.90;;;;;;4953721;28;20294;-43
2021/07/04 10:31:01;;;;;;;2.95;2.75;;;24.70;99.90;;;;;;4953731;28;20225;-44
2021/07/04 10:33:34;;;;;;;3.50;3.28;;;24.60;99.70;;;;;;4953375;28;20241;-45
2021/07/04 10:36:06;;;;;;;3.47;2.88;;;24.80;99.50;;;;;;4953168;28;20220;-48
2021/07/04 10:38:56;;;;;;;2.63;2.45;;;25.00;99.30;;;;;;4953287;28;20215;-48
2021/07/04 10:41:26;;;;;;;2.97;2.78;;;25.10;98.80;;;;;;4953282;28;20553;-47
2021/07/04 10:43:58;;;;;;;4.97;2.97;;;25.20;98.70;;;;;;4953457;28;20516;-47
2021/07/04 10:47:19;;;;;;;2.97;2.78;;;25.30;98.50;;;;;;4953365;28;20302;-45
2021/07/04 10:49:53;;;;;;;2.83;2.63;;;25.50;97.70;;;;;;4953077;28;20220;-45
2021/07/04 10:52:40;;;;;;;3.03;2.78;;;25.60;97.50;;;;;;4953755;28;20251;-44
2021/07/04 10:55:12;;;;;;;2.85;2.65;;;25.40;97.50;;;;;;4956616;28;20235;-46
2021/07/04 10:57:56;;;;;;;3.05;2.85;;;25.40;97.60;;;;;;4956573;28;20302;-45
2021/07/04 11:00:26;;;;;;;3.67;3.38;;;25.30;97.20;;;;;;4955660;28;20258;-46
2021/07/04 11:02:56;;;;;;;3.15;2.95;;;25.10;97.60;;;;;;4956294;28;20731;-43
2021/07/04 11:05:57;;;;;;;3.53;2.90;;;25.00;97.70;;;;;;4956105;28;20218;-43
2021/07/04 11:08:28;;;;;;;5.65;3.63;;;25.00;97.90;;;;;;4953323;28;20708;-43
2021/07/04 11:11:09;;;;;;;2.95;2.75;;;25.00;98.00;;;;;;4957059;28;20298;-44
2021/07/04 11:13:45;;;;;;;3.42;3.13;;;25.00;97.90;;;;;;4956176;28;20238;-46
2021/07/04 11:16:24;;;;;;;2.83;2.63;;;25.20;97.70;;;;;;4956276;28;20671;-45
2021/07/04 11:19:05;;;;;;;4.80;3.05;;;25.30;97.50;;;;;;4956433;28;20266;-43
2021/07/04 11:21:57;;;;;;;3.22;2.53;;;25.40;97.40;;;;;;4956243;28;20611;-44
2021/07/04 11:24:27;;;;;;;3.75;2.85;;;25.60;96.90;;;;;;4946348;28;20247;-46
2021/07/04 11:27:24;;;;;;;6.82;3.45;;;25.70;96.80;;;;;;4955982;28;20706;-43
2021/07/04 11:30:26;;;;;;;3.20;3.00;;;26.00;96.60;;;;;;4955636;28;20298;-47
2021/07/04 11:33:26;;;;;;;4.40;3.05;;;25.90;95.80;;;;;;4915339;29;20299;-44
2021/07/04 11:35:57;;;;;;;3.90;3.22;;;25.70;96.40;;;;;;4957475;28;20616;-45
2021/07/04 11:38:27;;;;;;;4.00;3.45;;;25.80;96.20;;;;;;4956169;28;20299;-44
2021/07/04 11:40:55;;;;;;;3.67;3.38;;;26.00;96.00;;;;;;4956179;28;20306;-43
2021/07/04 11:43:28;;;;;;;3.63;3.25;;;26.10;96.10;;;;;;4955872;28;20302;-48
2021/07/04 11:45:58;;;;;;;4.13;3.83;;;26.20;95.60;;;;;;4956407;28;20234;-44
2021/07/04 11:48:54;;;;;;;3.67;3.38;;;26.30;95.50;;;;;;4955803;28;20318;-47
2021/07/04 11:51:25;;;;;;;2.70;2.50;;;26.30;95.20;;;;;;4955097;28;20298;-44
2021/07/04 11:53:55;;;;;;;3.22;2.63;;;26.20;95.00;;;;;;4955851;28;20698;-48
2021/07/04 11:56:23;;;;;;;4.32;3.45;;;26.00;94.60;;;;;;4956033;28;20302;-44
2021/07/04 11:58:52;;;;;;;3.13;2.90;;;25.90;94.80;;;;;;4955713;28;20239;-44
2021/07/04 12:01:22;;;;;;;3.50;3.20;;;25.70;94.70;;;;;;4956612;28;20302;-48
2021/07/04 12:03:51;;;;;;;3.50;3.20;;;25.60;94.80;;;;;;4955119;28;20630;-49
2021/07/04 12:06:20;;;;;;;3.60;3.30;;;25.50;94.80;;;;;;4955796;28;20211;-46
2021/07/04 12:08:53;;;;;;;4.50;4.07;;;25.50;94.70;;;;;;4955900;28;20299;-43
2021/07/04 12:11:40;;;;;;;3.50;3.20;;;25.50;94.70;;;;;;4955876;28;20230;-46
2021/07/04 12:14:33;;;;;;;3.55;3.25;;;25.50;94.60;;;;;;4955479;28;20757;-46
2021/07/04 12:17:17;;;;;;;3.97;3.22;;;25.70;94.50;;;;;;4955656;29;20616;-45
2021/07/04 12:19:50;;;;;;;5.13;3.47;;;25.80;94.80;;;;;;4956061;28;20287;-43
2021/07/04 12:22:25;;;;;;;4.13;3.72;;;26.00;94.40;;;;;;4955662;28;20516;-48
2021/07/04 12:24:53;;;;;;;3.13;2.92;;;26.20;94.20;;;;;;4956007;28;20207;-44
2021/07/04 12:27:36;;;;;;;4.97;3.45;;;26.40;94.00;;;;;;4956151;28;20316;-47
2021/07/04 12:30:10;;;;;;;3.92;3.20;;;26.40;93.60;;;;;;4955458;28;20581;-43
2021/07/04 12:32:41;;;;;;;3.25;3.00;;;26.30;93.70;;;;;;4955524;28;20667;-43
2021/07/04 12:35:10;;;;;;;3.85;3.55;;;26.20;93.90;;;;;;4955209;28;20246;-46
2021/07/04 12:37:38;;;;;;;3.83;3.33;;;26.30;93.80;;;;;;4955395;28;20307;-51
2021/07/04 12:40:13;;;;;;;3.65;3.35;;;26.30;93.70;;;;;;4955460;28;20278;-45
2021/07/04 12:42:43;;;;;;;4.07;2.90;;;26.40;93.70;;;;;;4955111;28;20749;-42
2021/07/04 12:45:15;;;;;;;3.47;3.28;;;26.40;93.60;;;;;;4954899;28;20758;-46
2021/07/04 12:47:44;;;;;;;3.47;3.17;;;26.50;93.50;;;;;;4955091;28;20241;-46
2021/07/04 12:50:16;;;;;;;4.00;3.70;;;26.50;93.30;;;;;;4955081;29;20671;-44
2021/07/04 12:52:59;;;;;;;3.78;3.47;;;26.60;93.10;;;;;;4954815;28;20282;-44
2021/07/04 12:55:39;;;;;;;3.78;3.47;;;26.70;92.70;;;;;;4954707;28;20626;-43
2021/07/04 12:58:31;;;;;;;3.65;3.35;;;26.60;92.90;;;;;;4954631;28;20670;-43